createdAt,value
2024-02-08T00:00:55.974Z,78.53
2024-02-08T00:01:55.935Z,80.02
2024-02-08T00:02:55.862Z,79.29
2024-02-08T00:03:55.935Z,79.30
2024-02-08T00:04:55.888Z,79.05
2024-02-08T00:05:55.935Z,79.03
2024-02-08T00:06:55.971Z,78.39
2024-02-08T00:07:56.007Z,78.10
2024-02-08T00:08:56.024Z,78.26
2024-02-08T00:09:56.006Z,78.80
2024-02-08T00:10:56.092Z,78.78
2024-02-08T00:11:56.120Z,78.02
2024-02-08T00:12:56.083Z,79.02
2024-02-08T00:13:56.175Z,78.37
2024-02-08T00:14:56.169Z,78.24
2024-02-08T00:15:58.916Z,79.13
2024-02-08T00:16:56.193Z,77.94
2024-02-08T00:17:56.180Z,78.25
2024-02-08T00:18:56.226Z,78.13
2024-02-08T00:19:56.126Z,77.62
2024-02-08T00:20:56.085Z,78.11
2024-02-08T00:21:56.084Z,77.55
2024-02-08T00:22:56.076Z,77.42
2024-02-08T00:23:56.079Z,77.03
2024-02-08T00:24:56.041Z,76.97
2024-02-08T00:25:56.057Z,76.78
2024-02-08T00:26:55.993Z,76.24
2024-02-08T00:27:56.010Z,77.37
2024-02-08T00:28:56.049Z,76.58
2024-02-08T00:29:56.010Z,76.51
2024-02-08T00:30:55.989Z,77.20
2024-02-08T00:31:56.033Z,76.34
2024-02-08T00:32:55.999Z,76.10
2024-02-08T00:33:55.990Z,75.92
2024-02-08T00:34:56.009Z,76.19
2024-02-08T00:35:55.938Z,75.40
2024-02-08T00:36:55.886Z,75.39
2024-02-08T00:37:56.018Z,75.11
2024-02-08T00:38:55.945Z,75.38
2024-02-08T00:39:55.873Z,74.78
2024-02-08T00:40:55.861Z,74.46
2024-02-08T00:41:55.796Z,75.79
2024-02-08T00:42:55.782Z,74.54
2024-02-08T00:43:55.858Z,75.30
2024-02-08T00:44:55.791Z,74.72
2024-02-08T00:45:55.822Z,74.21
2024-02-08T00:46:55.824Z,75.27
2024-02-08T00:47:56.072Z,73.62
2024-02-08T00:48:55.934Z,74.49
2024-02-08T00:49:55.745Z,73.82
2024-02-08T00:50:55.734Z,74.04
2024-02-08T00:51:55.726Z,73.32
2024-02-08T00:52:55.741Z,73.92
2024-02-08T00:53:55.860Z,73.43
2024-02-08T00:54:55.612Z,73.56
2024-02-08T00:55:55.666Z,73.11
2024-02-08T00:56:55.572Z,72.87
2024-02-08T00:57:55.675Z,72.79
2024-02-08T00:58:55.591Z,72.83
2024-02-08T00:59:55.570Z,74.09
2024-02-08T01:00:55.520Z,72.40
2024-02-08T01:01:55.621Z,72.57
2024-02-08T01:02:55.614Z,72.48
2024-02-08T01:03:55.961Z,72.43
2024-02-08T01:04:55.489Z,72.43
2024-02-08T01:05:55.476Z,72.25
2024-02-08T01:06:55.424Z,72.21
2024-02-08T01:07:55.391Z,71.64
2024-02-08T01:08:55.413Z,72.28
2024-02-08T01:09:55.344Z,71.44
2024-02-08T01:10:55.390Z,71.29
2024-02-08T01:11:55.335Z,70.93
2024-02-08T01:12:55.332Z,72.06
2024-02-08T01:13:55.367Z,69.87
2024-02-08T01:14:55.274Z,71.11
2024-02-08T01:15:55.250Z,70.11
2024-02-08T01:16:55.317Z,71.06
2024-02-08T01:17:55.325Z,70.73
2024-02-08T01:18:55.376Z,70.10
2024-02-08T01:19:55.246Z,69.29
2024-02-08T01:20:55.182Z,68.56
2024-02-08T01:21:55.193Z,69.82
2024-02-08T01:22:55.185Z,69.55
2024-02-08T01:23:55.153Z,68.90
2024-02-08T01:24:55.101Z,69.41
2024-02-08T01:25:55.127Z,69.24
2024-02-08T01:26:55.117Z,69.33
2024-02-08T01:27:55.083Z,68.04
2024-02-08T01:28:55.405Z,68.71
2024-02-08T01:29:55.036Z,68.16
2024-02-08T01:30:55.049Z,68.16
2024-02-08T01:31:55.072Z,68.32
2024-02-08T01:32:55.030Z,67.34
2024-02-08T01:33:55.090Z,68.82
2024-02-08T01:34:55.041Z,68.59
2024-02-08T01:35:54.973Z,68.32
2024-02-08T01:36:55.138Z,69.39
2024-02-08T01:37:55.194Z,67.66
2024-02-08T01:38:55.098Z,67.51
2024-02-08T01:39:55.116Z,67.26
2024-02-08T01:40:55.114Z,65.96
2024-02-08T01:41:55.114Z,67.12
2024-02-08T01:42:55.090Z,67.24
2024-02-08T01:43:55.162Z,67.14
2024-02-08T01:44:55.134Z,66.56
2024-02-08T01:45:55.148Z,66.75
2024-02-08T01:46:55.236Z,66.97
2024-02-08T01:47:55.296Z,67.08
2024-02-08T01:48:55.233Z,67.24
2024-02-08T01:49:55.231Z,67.77
2024-02-08T01:50:55.221Z,68.21
2024-02-08T01:51:55.256Z,67.37
2024-02-08T01:52:55.467Z,67.26
2024-02-08T01:53:55.309Z,67.96
2024-02-08T01:54:55.347Z,67.39
2024-02-08T01:55:55.454Z,66.73
2024-02-08T01:56:55.431Z,66.98
2024-02-08T01:57:55.485Z,65.77
2024-02-08T01:58:55.891Z,66.63
2024-02-08T01:59:55.545Z,66.23
2024-02-08T02:00:55.576Z,66.83
2024-02-08T02:01:55.584Z,66.05
2024-02-08T02:02:55.602Z,65.44
2024-02-08T02:03:55.675Z,66.05
2024-02-08T02:04:55.742Z,66.91
2024-02-08T02:05:55.689Z,65.49
2024-02-08T02:06:55.734Z,65.81
2024-02-08T02:07:55.791Z,65.62
2024-02-08T02:08:55.819Z,65.98
2024-02-08T02:09:55.859Z,66.14
2024-02-08T02:10:55.929Z,65.20
2024-02-08T02:11:55.957Z,65.28
2024-02-08T02:12:55.953Z,65.65
2024-02-08T02:13:55.969Z,65.49
2024-02-08T02:14:55.956Z,65.19
2024-02-08T02:15:55.959Z,65.92
2024-02-08T02:16:55.961Z,65.26
2024-02-08T02:17:56.015Z,65.38
2024-02-08T02:18:56.053Z,65.98
2024-02-08T02:19:56.052Z,66.19
2024-02-08T02:20:56.108Z,65.19
2024-02-08T02:21:56.112Z,65.53
2024-02-08T02:22:56.191Z,65.70
2024-02-08T02:23:56.167Z,65.24
2024-02-08T02:24:56.160Z,65.20
2024-02-08T02:25:56.253Z,66.05
2024-02-08T02:26:56.190Z,65.56
2024-02-08T02:27:56.146Z,64.94
2024-02-08T02:28:56.280Z,64.90
2024-02-08T02:29:56.127Z,64.25
2024-02-08T02:30:56.172Z,64.46
2024-02-08T02:31:56.231Z,63.29
2024-02-08T02:32:56.261Z,64.20
2024-02-08T02:33:56.304Z,63.68
2024-02-08T02:34:56.294Z,63.30
2024-02-08T02:35:56.301Z,63.83
2024-02-08T02:36:56.336Z,63.67
2024-02-08T02:37:56.386Z,63.94
2024-02-08T02:38:56.388Z,64.94
2024-02-08T02:39:56.433Z,64.10
2024-02-08T02:40:56.601Z,63.66
2024-02-08T02:41:56.492Z,63.40
2024-02-08T02:42:56.522Z,62.63
2024-02-08T02:43:57.008Z,62.72
2024-02-08T02:44:56.585Z,62.99
2024-02-08T02:45:56.676Z,62.95
2024-02-08T02:46:56.623Z,62.95
2024-02-08T02:47:56.682Z,63.22
2024-02-08T02:48:56.733Z,63.17
2024-02-08T02:49:56.734Z,62.48
2024-02-08T02:50:56.678Z,62.35
2024-02-08T02:51:56.642Z,62.37
2024-02-08T02:52:56.691Z,62.43
2024-02-08T02:53:56.872Z,62.15
2024-02-08T02:54:56.694Z,63.18
2024-02-08T02:55:56.696Z,62.67
2024-02-08T02:56:56.648Z,61.61
2024-02-08T02:57:56.688Z,61.89
2024-02-08T02:58:56.757Z,61.58
2024-02-08T02:59:56.628Z,61.90
2024-02-08T03:00:56.691Z,61.93
2024-02-08T03:01:56.706Z,61.38
2024-02-08T03:02:56.652Z,61.58
2024-02-08T03:03:56.732Z,61.51
2024-02-08T03:04:56.659Z,61.94
2024-02-08T03:05:56.597Z,61.57
2024-02-08T03:06:56.708Z,61.89
2024-02-08T03:07:56.751Z,61.36
2024-02-08T03:08:56.610Z,61.11
2024-02-08T03:09:56.627Z,61.08
2024-02-08T03:10:56.737Z,61.35
2024-02-08T03:11:56.588Z,61.74
2024-02-08T03:12:56.590Z,61.08
2024-02-08T03:13:56.683Z,61.81
2024-02-08T03:14:56.592Z,60.73
2024-02-08T03:15:56.652Z,60.93
2024-02-08T03:16:56.675Z,60.75
2024-02-08T03:17:56.675Z,60.17
2024-02-08T03:18:56.683Z,60.84
2024-02-08T03:19:56.645Z,60.55
2024-02-08T03:20:56.637Z,60.66
2024-02-08T03:21:56.657Z,61.60
2024-02-08T03:22:56.693Z,59.97
2024-02-08T03:23:56.691Z,60.66
2024-02-08T03:24:56.656Z,60.65
2024-02-08T03:25:56.688Z,59.88
2024-02-08T03:26:56.694Z,61.67
2024-02-08T03:27:56.686Z,60.07
2024-02-08T03:28:56.849Z,60.12
2024-02-08T03:29:56.799Z,60.17
2024-02-08T03:30:56.823Z,60.41
2024-02-08T03:31:56.873Z,60.79
2024-02-08T03:32:57.046Z,61.38
2024-02-08T03:33:56.990Z,60.15
2024-02-08T03:34:56.984Z,60.25
2024-02-08T03:35:56.927Z,60.39
2024-02-08T03:36:57.214Z,59.79
2024-02-08T03:37:57.268Z,60.87
2024-02-08T03:38:57.130Z,60.52
2024-02-08T03:39:57.161Z,60.68
2024-02-08T03:40:57.221Z,60.99
2024-02-08T03:41:57.188Z,60.67
2024-02-08T03:42:57.228Z,60.86
2024-02-08T03:43:57.219Z,59.46
2024-02-08T03:44:57.322Z,60.52
2024-02-08T03:45:57.393Z,61.18
2024-02-08T03:46:57.311Z,60.91
2024-02-08T03:47:57.275Z,61.10
2024-02-08T03:48:57.338Z,59.84
2024-02-08T03:49:57.349Z,60.03
2024-02-08T03:50:57.276Z,60.14
2024-02-08T03:51:57.302Z,59.77
2024-02-08T03:52:57.345Z,60.39
2024-02-08T03:53:57.380Z,60.25
2024-02-08T03:54:57.331Z,60.21
2024-02-08T03:55:57.457Z,59.44
2024-02-08T03:56:57.413Z,59.84
2024-02-08T03:57:57.411Z,59.15
2024-02-08T03:58:57.470Z,60.15
2024-02-08T03:59:57.425Z,59.13
2024-02-08T04:00:57.442Z,59.01
2024-02-08T04:01:57.473Z,58.66
2024-02-08T04:02:57.443Z,58.76
2024-02-08T04:03:57.546Z,58.89
2024-02-08T04:04:57.618Z,59.52
2024-02-08T04:05:57.597Z,59.08
2024-02-08T04:06:57.622Z,59.09
2024-02-08T04:07:57.660Z,57.46
2024-02-08T04:08:57.642Z,58.26
2024-02-08T04:09:58.074Z,58.63
2024-02-08T04:10:57.642Z,58.26
2024-02-08T04:11:57.660Z,58.62
2024-02-08T04:12:57.659Z,57.91
2024-02-08T04:13:57.739Z,58.40
2024-02-08T04:14:57.730Z,57.38
2024-02-08T04:16:00.577Z,58.04
2024-02-08T04:16:57.779Z,57.97
2024-02-08T04:17:57.876Z,57.81
2024-02-08T04:18:58.016Z,57.54
2024-02-08T04:19:57.713Z,57.16
2024-02-08T04:20:57.722Z,58.39
2024-02-08T04:21:57.714Z,58.67
2024-02-08T04:22:57.752Z,57.92
2024-02-08T04:23:57.659Z,58.33
2024-02-08T04:24:57.651Z,57.52
2024-02-08T04:26:05.045Z,50.00
2024-02-08T04:27:04.853Z,50.00
2024-02-08T04:28:04.918Z,50.00
2024-02-08T04:29:05.050Z,50.00
2024-02-08T04:30:04.908Z,50.00
2024-02-08T04:31:12.123Z,50.00
2024-02-08T04:32:12.187Z,50.00
2024-02-08T04:33:12.259Z,50.00
2024-02-08T04:34:12.313Z,50.00
2024-02-08T04:35:12.391Z,50.00
2024-02-08T04:36:12.154Z,50.51
2024-02-08T04:37:12.162Z,50.08
2024-02-08T04:38:12.239Z,50.61
2024-02-08T04:39:12.151Z,50.15
2024-02-08T04:40:12.158Z,50.65
2024-02-08T04:41:12.234Z,50.09
2024-02-08T04:42:12.197Z,50.00
2024-02-08T04:43:12.211Z,51.30
2024-02-08T04:44:12.261Z,50.47
2024-02-08T04:45:12.222Z,51.41
2024-02-08T04:46:12.231Z,50.08
2024-02-08T04:47:12.247Z,50.72
2024-02-08T04:48:12.262Z,50.22
2024-02-08T04:49:12.290Z,50.90
2024-02-08T04:50:12.212Z,50.68
2024-02-08T04:51:12.231Z,51.94
2024-02-08T04:52:14.570Z,51.02
2024-02-08T04:53:12.486Z,51.15
2024-02-08T04:54:12.543Z,50.50
2024-02-08T04:55:12.593Z,51.17
2024-02-08T04:56:12.739Z,50.24
2024-02-08T04:57:13.248Z,50.89
2024-02-08T04:58:36.220Z,51.15
2024-02-08T04:59:21.815Z,51.21
2024-02-08T05:00:13.842Z,51.24
2024-02-08T05:01:12.818Z,51.59
2024-02-08T05:02:12.831Z,51.65
2024-02-08T05:03:12.798Z,52.31
2024-02-08T05:04:12.965Z,52.16
2024-02-08T05:05:13.012Z,51.56
2024-02-08T05:06:12.922Z,52.42
2024-02-08T05:07:13.005Z,51.27
2024-02-08T05:08:12.903Z,51.68
2024-02-08T05:09:13.216Z,52.05
2024-02-08T05:10:12.984Z,51.56
2024-02-08T05:11:12.953Z,50.97
2024-02-08T05:12:12.906Z,51.34
2024-02-08T05:13:12.977Z,50.94
2024-02-08T05:14:12.925Z,50.23
2024-02-08T05:15:12.947Z,51.03
2024-02-08T05:16:12.960Z,51.34
2024-02-08T05:17:12.948Z,50.40
2024-02-08T05:18:13.087Z,51.00
2024-02-08T05:19:13.085Z,51.43
2024-02-08T05:20:12.964Z,50.41
2024-02-08T05:21:12.985Z,50.97
2024-02-08T05:22:13.072Z,51.00
2024-02-08T05:23:13.003Z,50.75
2024-02-08T05:24:13.229Z,50.20
2024-02-08T05:25:13.097Z,50.49
2024-02-08T05:26:13.173Z,50.25
2024-02-08T05:27:13.390Z,51.46
2024-02-08T05:28:13.303Z,50.58
2024-02-08T05:29:13.359Z,50.99
2024-02-08T05:30:13.406Z,50.60
2024-02-08T05:31:13.493Z,50.52
2024-02-08T05:32:13.553Z,50.85
2024-02-08T05:33:16.684Z,50.25
2024-02-08T05:34:17.224Z,50.28
2024-02-08T05:35:13.678Z,50.34
2024-02-08T05:36:13.609Z,50.57
2024-02-08T05:37:13.752Z,50.96
2024-02-08T05:38:13.641Z,51.03
2024-02-08T05:39:13.665Z,51.02
2024-02-08T05:40:13.746Z,51.03
2024-02-08T05:41:13.689Z,51.01
2024-02-08T05:42:13.699Z,51.13
2024-02-08T05:43:13.777Z,51.07
2024-02-08T05:44:13.930Z,50.73
2024-02-08T05:45:13.725Z,50.97
2024-02-08T05:46:13.851Z,50.89
2024-02-08T05:47:13.826Z,50.29
2024-02-08T05:48:13.911Z,50.33
2024-02-08T05:49:14.333Z,50.28
2024-02-08T05:50:14.075Z,50.55
2024-02-08T05:51:14.016Z,51.67
2024-02-08T05:52:14.134Z,51.91
2024-02-08T05:53:14.184Z,51.25
2024-02-08T05:54:14.263Z,51.38
2024-02-08T05:55:14.468Z,51.49
2024-02-08T05:56:14.378Z,50.56
2024-02-08T05:57:14.461Z,51.57
2024-02-08T05:58:14.544Z,51.30
2024-02-08T05:59:14.578Z,50.73
2024-02-08T06:00:14.666Z,51.04
2024-02-08T06:01:14.775Z,51.28
2024-02-08T06:02:14.897Z,51.43
2024-02-08T06:03:14.832Z,50.89
2024-02-08T06:04:15.036Z,50.91
2024-02-08T06:05:18.219Z,52.02
2024-02-08T06:06:15.009Z,51.93
2024-02-08T06:07:14.999Z,50.87
2024-02-08T06:08:15.039Z,51.87
2024-02-08T06:09:15.311Z,51.19
2024-02-08T06:10:16.087Z,51.97
2024-02-08T06:11:15.037Z,51.79
2024-02-08T06:12:15.048Z,50.80
2024-02-08T06:13:15.149Z,51.80
2024-02-08T06:14:15.036Z,50.90
2024-02-08T06:15:15.071Z,50.73
2024-02-08T06:16:15.086Z,50.85
2024-02-08T06:17:15.083Z,51.53
2024-02-08T06:18:15.150Z,50.58
2024-02-08T06:19:15.362Z,50.78
2024-02-08T06:20:15.113Z,50.29
2024-02-08T06:21:15.132Z,50.70
2024-02-08T06:22:15.116Z,50.71
2024-02-08T06:23:15.162Z,51.15
2024-02-08T06:24:15.235Z,50.95
2024-02-08T06:25:15.332Z,50.97
2024-02-08T06:26:15.346Z,51.84
2024-02-08T06:27:16.234Z,50.70
2024-02-08T06:28:15.499Z,51.35
2024-02-08T06:29:15.573Z,50.34
2024-02-08T06:30:15.704Z,51.03
2024-02-08T06:31:15.703Z,51.92
2024-02-08T06:32:15.765Z,51.26
2024-02-08T06:33:15.889Z,51.10
2024-02-08T06:34:15.996Z,51.98
2024-02-08T06:35:16.006Z,50.18
2024-02-08T06:36:16.028Z,50.98
2024-02-08T06:37:16.204Z,51.40
2024-02-08T06:38:16.188Z,50.73
2024-02-08T06:39:16.303Z,50.00
2024-02-08T06:40:16.353Z,50.80
2024-02-08T06:41:16.385Z,50.45
2024-02-08T06:42:16.451Z,50.47
2024-02-08T06:43:16.509Z,50.25
2024-02-08T06:44:16.602Z,51.08
2024-02-08T06:45:16.612Z,51.26
2024-02-08T06:46:16.742Z,51.38
2024-02-08T06:47:16.729Z,51.00
2024-02-08T06:48:17.013Z,51.06
2024-02-08T06:49:17.046Z,50.48
2024-02-08T06:50:16.953Z,51.71
2024-02-08T06:51:16.999Z,51.68
2024-02-08T06:52:17.104Z,51.56
2024-02-08T06:53:17.114Z,50.92
2024-02-08T06:54:17.313Z,52.14
2024-02-08T06:55:17.258Z,52.34
2024-02-08T06:56:17.301Z,52.08
2024-02-08T06:57:18.282Z,52.21
2024-02-08T06:58:17.471Z,51.70
2024-02-08T06:59:17.780Z,51.68
2024-02-08T07:00:17.502Z,51.76
2024-02-08T07:01:17.635Z,51.44
2024-02-08T07:02:17.652Z,50.16
2024-02-08T07:03:17.693Z,50.26
2024-02-08T07:04:18.895Z,50.65
2024-02-08T07:05:17.841Z,50.52
2024-02-08T07:06:17.775Z,50.00
2024-02-08T07:07:17.943Z,50.83
2024-02-08T07:08:17.971Z,51.97
2024-02-08T07:09:18.310Z,52.53
2024-02-08T07:10:17.995Z,50.74
2024-02-08T07:11:17.978Z,50.00
2024-02-08T07:12:18.029Z,51.38
2024-02-08T07:13:18.093Z,56.16
2024-02-08T07:14:18.284Z,58.46
2024-02-08T07:15:18.073Z,60.79
2024-02-08T07:16:18.168Z,63.42
2024-02-08T07:17:18.153Z,66.51
2024-02-08T07:18:18.207Z,72.04
2024-02-08T07:19:18.403Z,78.06
2024-02-08T07:20:18.279Z,78.65
2024-02-08T07:21:18.177Z,86.73
2024-02-08T07:22:18.258Z,95.56
2024-02-08T07:23:18.161Z,104.60
2024-02-08T07:24:18.301Z,112.81
2024-02-08T07:25:18.253Z,118.45
2024-02-08T07:26:18.223Z,123.19
2024-02-08T07:27:18.215Z,125.86
2024-02-08T07:28:18.297Z,130.32
2024-02-08T07:29:18.299Z,136.30
2024-02-08T07:30:18.363Z,137.21
2024-02-08T07:31:18.391Z,142.43
2024-02-08T07:32:18.357Z,144.90
2024-02-08T07:33:18.460Z,147.58
2024-02-08T07:34:18.604Z,151.82
2024-02-08T07:35:18.530Z,154.57
2024-02-08T07:36:21.119Z,155.80
2024-02-08T07:37:18.577Z,158.03
2024-02-08T07:38:18.546Z,159.48
2024-02-08T07:39:18.813Z,162.01
2024-02-08T07:40:18.560Z,164.28
2024-02-08T07:41:18.516Z,164.20
2024-02-08T07:42:18.551Z,166.73
2024-02-08T07:43:18.665Z,168.23
2024-02-08T07:44:19.301Z,170.68
2024-02-08T07:45:18.496Z,168.97
2024-02-08T07:46:18.542Z,172.77
2024-02-08T07:47:18.514Z,175.17
2024-02-08T07:48:18.557Z,174.71
2024-02-08T07:49:18.700Z,176.47
2024-02-08T07:50:19.362Z,177.30
2024-02-08T07:51:18.424Z,181.46
2024-02-08T07:52:18.466Z,183.67
2024-02-08T07:53:18.445Z,187.85
2024-02-08T07:54:18.410Z,189.75
2024-02-08T07:55:18.435Z,187.46
2024-02-08T07:56:18.360Z,190.93
2024-02-08T07:57:18.379Z,191.14
2024-02-08T07:58:18.352Z,191.25
2024-02-08T07:59:18.341Z,198.74
2024-02-08T08:00:18.293Z,199.45
2024-02-08T08:01:18.383Z,199.83
2024-02-08T08:02:18.262Z,199.91
2024-02-08T08:03:18.475Z,198.43
2024-02-08T08:04:18.352Z,198.08
2024-02-08T08:05:18.329Z,199.14
2024-02-08T08:06:18.262Z,197.32
2024-02-08T08:07:18.281Z,198.55
2024-02-08T08:08:18.256Z,198.79
2024-02-08T08:09:18.867Z,198.50
2024-02-08T08:10:18.429Z,198.96
2024-02-08T08:11:18.469Z,199.24
2024-02-08T08:12:18.463Z,200.00
2024-02-08T08:13:18.526Z,198.05
2024-02-08T08:14:18.854Z,200.00
2024-02-08T08:15:18.588Z,199.00
2024-02-08T08:16:18.682Z,199.51
2024-02-08T08:17:18.902Z,199.57
2024-02-08T08:18:18.738Z,198.58
2024-02-08T08:19:18.795Z,200.00
2024-02-08T08:20:19.138Z,199.91
2024-02-08T08:21:18.728Z,198.58
2024-02-08T08:22:18.833Z,198.61
2024-02-08T08:23:18.787Z,198.09
2024-02-08T08:24:19.098Z,198.29
2024-02-08T08:25:18.800Z,198.45
2024-02-08T08:26:18.777Z,200.00
2024-02-08T08:27:18.825Z,198.52
2024-02-08T08:28:18.934Z,198.88
2024-02-08T08:29:19.310Z,198.11
2024-02-08T08:30:18.878Z,198.72
2024-02-08T08:31:18.948Z,197.92
2024-02-08T08:32:18.935Z,199.09
2024-02-08T08:33:19.012Z,199.79
2024-02-08T08:34:19.196Z,198.39
2024-02-08T08:35:19.066Z,200.00
2024-02-08T08:36:18.906Z,198.73
2024-02-08T08:37:19.013Z,197.51
2024-02-08T08:38:18.944Z,197.56
2024-02-08T08:39:19.344Z,199.09
2024-02-08T08:40:19.097Z,197.74
2024-02-08T08:41:19.130Z,197.60
2024-02-08T08:42:19.441Z,198.89
2024-02-08T08:43:19.000Z,196.44
2024-02-08T08:44:19.003Z,197.84
2024-02-08T08:45:19.023Z,198.55
2024-02-08T08:46:19.038Z,196.79
2024-02-08T08:47:19.074Z,197.23
2024-02-08T08:48:19.150Z,196.80
2024-02-08T08:49:19.107Z,198.09
2024-02-08T08:50:19.768Z,196.32
2024-02-08T08:51:19.052Z,198.67
2024-02-08T08:52:19.152Z,199.45
2024-02-08T08:53:19.098Z,197.69
2024-02-08T08:54:19.146Z,198.57
2024-02-08T08:55:19.408Z,200.00
2024-02-08T08:56:19.171Z,199.44
2024-02-08T08:57:19.157Z,198.93
2024-02-08T08:58:19.293Z,199.14
2024-02-08T08:59:19.248Z,198.21
2024-02-08T09:00:19.258Z,197.16
2024-02-08T09:01:19.488Z,197.51
2024-02-08T09:02:19.392Z,198.08
2024-02-08T09:03:19.351Z,198.38
2024-02-08T09:04:19.912Z,198.37
2024-02-08T09:05:19.569Z,198.16
2024-02-08T09:06:19.430Z,197.58
2024-02-08T09:07:19.545Z,198.06
2024-02-08T09:08:19.629Z,196.47
2024-02-08T09:09:19.540Z,197.40
2024-02-08T09:10:19.552Z,194.93
2024-02-08T09:11:19.605Z,194.93
2024-02-08T09:12:19.755Z,194.84
2024-02-08T09:13:19.672Z,192.60
2024-02-08T09:14:19.833Z,192.52
2024-02-08T09:15:19.778Z,191.11
2024-02-08T09:16:19.855Z,190.60
2024-02-08T09:17:24.945Z,191.40
2024-02-08T09:18:20.908Z,191.40
2024-02-08T09:19:19.901Z,189.45
2024-02-08T09:20:19.913Z,187.88
2024-02-08T09:21:19.737Z,187.81
2024-02-08T09:22:20.115Z,185.71
2024-02-08T09:23:19.757Z,184.74
2024-02-08T09:24:20.005Z,186.50
2024-02-08T09:25:27.537Z,182.17
2024-02-08T09:26:21.340Z,182.20
2024-02-08T09:27:19.680Z,182.23
2024-02-08T09:28:19.687Z,182.00
2024-02-08T09:29:19.823Z,181.33
2024-02-08T09:30:19.616Z,179.31
2024-02-08T09:31:19.617Z,180.07
2024-02-08T09:32:19.604Z,178.39
2024-02-08T09:33:19.610Z,177.07
2024-02-08T09:34:19.920Z,177.71
2024-02-08T09:35:19.609Z,177.21
2024-02-08T09:36:19.598Z,175.69
2024-02-08T09:37:19.700Z,176.45
2024-02-08T09:38:19.699Z,174.21
2024-02-08T09:39:19.865Z,173.05
2024-02-08T09:40:19.831Z,175.02
2024-02-08T09:41:19.830Z,174.02
2024-02-08T09:42:19.888Z,171.98
2024-02-08T09:43:20.077Z,172.20
2024-02-08T09:44:20.368Z,172.90
2024-02-08T09:45:20.045Z,171.29
2024-02-08T09:46:20.035Z,171.39
2024-02-08T09:47:20.055Z,170.12
2024-02-08T09:48:20.188Z,170.55
2024-02-08T09:49:20.556Z,170.27
2024-02-08T09:50:20.166Z,169.82
2024-02-08T09:51:20.154Z,168.54
2024-02-08T09:52:20.155Z,168.91
2024-02-08T09:53:20.106Z,167.75
2024-02-08T09:54:20.381Z,166.34
2024-02-08T09:55:20.255Z,167.79
2024-02-08T09:56:20.197Z,164.47
2024-02-08T09:57:20.210Z,164.41
2024-02-08T09:58:20.257Z,164.21
2024-02-08T09:59:20.223Z,164.46
2024-02-08T10:00:20.235Z,162.40
2024-02-08T10:01:20.358Z,161.98
2024-02-08T10:02:20.288Z,162.77
2024-02-08T10:03:20.367Z,162.03
2024-02-08T10:04:20.578Z,161.66
2024-02-08T10:05:20.859Z,160.11
2024-02-08T10:06:20.369Z,162.11
2024-02-08T10:07:20.373Z,160.09
2024-02-08T10:08:20.335Z,160.27
2024-02-08T10:09:20.403Z,158.12
2024-02-08T10:10:20.369Z,160.16
2024-02-08T10:11:20.342Z,158.79
2024-02-08T10:12:20.600Z,158.05
2024-02-08T10:13:20.291Z,157.93
2024-02-08T10:14:20.355Z,155.26
2024-02-08T10:15:20.374Z,155.20
2024-02-08T10:16:20.447Z,156.01
2024-02-08T10:17:20.407Z,154.07
2024-02-08T10:18:20.500Z,153.76
2024-02-08T10:19:20.608Z,154.63
2024-02-08T10:20:20.484Z,153.70
2024-02-08T10:21:20.435Z,155.82
2024-02-08T10:22:20.427Z,152.23
2024-02-08T10:23:20.377Z,154.24
2024-02-08T10:24:20.422Z,151.78
2024-02-08T10:25:20.470Z,151.61
2024-02-08T10:26:20.484Z,151.18
2024-02-08T10:27:20.415Z,150.67
2024-02-08T10:28:20.498Z,149.71
2024-02-08T10:29:20.485Z,149.45
2024-02-08T10:30:20.469Z,149.08
2024-02-08T10:31:20.568Z,149.57
2024-02-08T10:32:20.432Z,148.56
2024-02-08T10:33:20.502Z,148.38
2024-02-08T10:34:20.469Z,147.40
2024-02-08T10:35:20.487Z,144.65
2024-02-08T10:36:23.209Z,145.61
2024-02-08T10:37:20.471Z,145.64
2024-02-08T10:38:20.391Z,145.93
2024-02-08T10:39:20.855Z,145.96
2024-02-08T10:40:20.437Z,145.22
2024-02-08T10:41:20.379Z,146.25
2024-02-08T10:42:21.780Z,148.20
2024-02-08T10:43:20.401Z,146.65
2024-02-08T10:44:20.393Z,144.07
2024-02-08T10:45:20.386Z,145.74
2024-02-08T10:46:20.568Z,142.39
2024-02-08T10:47:28.820Z,143.55
2024-02-08T10:48:21.412Z,143.62
2024-02-08T10:49:20.473Z,143.59
2024-02-08T10:50:20.537Z,142.89
2024-02-08T10:51:20.407Z,143.64
2024-02-08T10:52:20.460Z,140.95
2024-02-08T10:53:20.352Z,142.65
2024-02-08T10:54:20.376Z,142.76
2024-02-08T10:55:20.435Z,143.03
2024-02-08T10:56:20.304Z,141.87
2024-02-08T10:57:20.307Z,139.40
2024-02-08T10:58:20.333Z,138.26
2024-02-08T10:59:20.252Z,137.02
2024-02-08T11:00:20.268Z,137.03
2024-02-08T11:01:20.390Z,134.16
2024-02-08T11:02:20.247Z,132.19
2024-02-08T11:03:20.224Z,132.25
2024-02-08T11:04:20.434Z,131.45
2024-02-08T11:05:20.306Z,130.95
2024-02-08T11:06:20.341Z,129.89
2024-02-08T11:07:20.364Z,128.37
2024-02-08T11:08:20.361Z,128.51
2024-02-08T11:09:20.893Z,127.87
2024-02-08T11:10:20.500Z,125.27
2024-02-08T11:11:20.472Z,125.42
2024-02-08T11:12:20.552Z,125.35
2024-02-08T11:13:20.600Z,125.30
2024-02-08T11:14:20.897Z,126.00
2024-02-08T11:15:20.667Z,125.50
2024-02-08T11:16:21.283Z,125.19
2024-02-08T11:17:20.820Z,124.35
2024-02-08T11:18:20.847Z,123.24
2024-02-08T11:19:21.270Z,123.54
2024-02-08T11:20:20.922Z,123.91
2024-02-08T11:21:20.909Z,123.16
2024-02-08T11:22:20.980Z,123.93
2024-02-08T11:23:21.028Z,124.59
2024-02-08T11:24:23.125Z,125.17
2024-02-08T11:25:21.747Z,125.42
2024-02-08T11:26:21.010Z,126.12
2024-02-08T11:27:20.965Z,126.25
2024-02-08T11:28:26.592Z,126.72
2024-02-08T11:29:21.909Z,126.74
2024-02-08T11:30:20.890Z,125.92
2024-02-08T11:31:20.939Z,125.07
2024-02-08T11:32:20.870Z,126.11
2024-02-08T11:33:20.849Z,125.51
2024-02-08T11:34:20.956Z,127.34
2024-02-08T11:35:20.996Z,127.14
2024-02-08T11:36:20.748Z,126.51
2024-02-08T11:37:21.226Z,125.66
2024-02-08T11:38:20.714Z,128.14
2024-02-08T11:39:20.753Z,125.39
2024-02-08T11:40:20.968Z,126.32
2024-02-08T11:41:20.826Z,127.56
2024-02-08T11:42:20.851Z,127.68
2024-02-08T11:43:21.159Z,128.64
2024-02-08T11:44:20.889Z,128.85
2024-02-08T11:45:21.381Z,129.24
2024-02-08T11:46:21.894Z,129.84
2024-02-08T11:47:21.199Z,129.82
2024-02-08T11:48:21.115Z,130.22
2024-02-08T11:49:21.098Z,132.89
2024-02-08T11:50:21.440Z,131.52
2024-02-08T11:51:21.113Z,132.80
2024-02-08T11:52:21.232Z,133.64
2024-02-08T11:53:21.176Z,132.61
2024-02-08T11:54:21.191Z,133.23
2024-02-08T11:55:21.451Z,133.17
2024-02-08T11:56:21.258Z,133.22
2024-02-08T11:57:22.057Z,134.16
2024-02-08T11:58:21.369Z,133.73
2024-02-08T11:59:21.363Z,133.68
2024-02-08T12:00:21.438Z,132.70
2024-02-08T12:01:21.402Z,134.29
2024-02-08T12:02:21.418Z,134.44
2024-02-08T12:03:21.420Z,134.14
2024-02-08T12:04:21.467Z,135.76
2024-02-08T12:05:22.403Z,137.71
2024-02-08T12:06:21.492Z,135.66
2024-02-08T12:07:22.457Z,136.94
2024-02-08T12:08:24.002Z,136.08
2024-02-08T12:09:22.522Z,136.10
2024-02-08T12:10:21.978Z,135.08
2024-02-08T12:11:21.453Z,136.01
2024-02-08T12:12:21.474Z,134.84
2024-02-08T12:13:21.435Z,136.22
2024-02-08T12:14:27.043Z,135.82
2024-02-08T12:15:22.499Z,135.95
2024-02-08T12:16:21.367Z,136.08
2024-02-08T12:17:21.299Z,137.21
2024-02-08T12:18:21.383Z,138.02
2024-02-08T12:19:21.335Z,138.41
2024-02-08T12:20:21.379Z,139.68
2024-02-08T12:21:21.211Z,140.12
2024-02-08T12:22:21.277Z,138.71
2024-02-08T12:23:21.190Z,140.99
2024-02-08T12:24:21.890Z,142.20
2024-02-08T12:25:21.443Z,142.77
2024-02-08T12:26:21.118Z,143.86
2024-02-08T12:27:21.051Z,141.20
2024-02-08T12:28:22.979Z,143.14
2024-02-08T12:29:21.004Z,145.11
2024-02-08T12:30:20.964Z,144.85
2024-02-08T12:31:21.040Z,144.05
2024-02-08T12:32:21.086Z,145.38
2024-02-08T12:33:20.941Z,145.45
2024-02-08T12:34:21.096Z,146.80
2024-02-08T12:35:21.434Z,144.61
2024-02-08T12:36:20.998Z,146.90
2024-02-08T12:37:21.293Z,147.54
2024-02-08T12:38:20.924Z,148.32
2024-02-08T12:39:20.995Z,150.36
2024-02-08T12:40:21.379Z,150.05
2024-02-08T12:41:21.002Z,148.85
2024-02-08T12:42:20.989Z,147.95
2024-02-08T12:43:21.173Z,147.85